sensor_id;sensor_type;location;lat;lon;timestamp;temperature;humidity
18266;DHT22;9259;48.194;16.322;2022-09-06T13:57:43;32.50;99.90
18266;DHT22;9259;48.194;16.322;2022-09-06T14:00:11;33.40;97.20
18266;DHT22;9259;48.194;16.322;2022-09-06T14:02:40;33.00;97.10
18266;DHT22;9259;48.194;16.322;2022-09-06T14:05:08;32.40;98.10
18266;DHT22;9259;48.194;16.322;2022-09-06T14:07:37;32.50;97.50
18266;DHT22;9259;48.194;16.322;2022-09-06T14:10:05;32.90;96.70
18266;DHT22;9259;48.194;16.322;2022-09-06T14:12:34;32.50;97.00
18266;DHT22;9259;48.194;16.322;2022-09-06T14:15:04;32.80;97.20
18266;DHT22;9259;48.194;16.322;2022-09-06T14:17:32;30.90;99.00
18266;DHT22;9259;48.194;16.322;2022-09-06T14:20:00;31.00;99.40
18266;DHT22;9259;48.194;16.322;2022-09-06T14:22:28;32.30;98.30
18266;DHT22;9259;48.194;16.322;2022-09-06T14:24:56;32.30;97.70
18266;DHT22;9259;48.194;16.322;2022-09-06T14:27:24;32.30;97.30
18266;DHT22;9259;48.194;16.322;2022-09-06T14:29:52;32.60;97.40
18266;DHT22;9259;48.194;16.322;2022-09-06T14:32:21;32.60;96.80
18266;DHT22;9259;48.194;16.322;2022-09-06T14:34:53;33.00;96.60
18266;DHT22;9259;48.194;16.322;2022-09-06T22:56:01;33.90;95.80
18266;DHT22;9259;48.194;16.322;2022-09-06T22:58:29;19.60;99.90
18266;DHT22;9259;48.194;16.322;2022-09-06T23:01:05;19.40;99.90
18266;DHT22;9259;48.194;16.322;2022-09-06T23:03:34;19.30;99.90
18266;DHT22;9259;48.194;16.322;2022-09-06T23:06:04;19.30;99.90
18266;DHT22;9259;48.194;16.322;2022-09-06T23:08:33;19.20;99.90
18266;DHT22;9259;48.194;16.322;2022-09-06T23:11:04;19.20;99.90
18266;DHT22;9259;48.194;16.322;2022-09-06T23:13:33;19.20;99.90
18266;DHT22;9259;48.194;16.322;2022-09-06T23:16:02;19.20;99.90
18266;DHT22;9259;48.194;16.322;2022-09-06T23:18:31;19.20;99.90
18266;DHT22;9259;48.194;16.322;2022-09-06T23:21:05;19.30;99.90
18266;DHT22;9259;48.194;16.322;2022-09-06T23:23:34;19.30;99.90
18266;DHT22;9259;48.194;16.322;2022-09-06T23:26:04;19.30;99.90
18266;DHT22;9259;48.194;16.322;2022-09-06T23:28:33;19.20;99.90
18266;DHT22;9259;48.194;16.322;2022-09-06T23:31:01;19.20;99.90
18266;DHT22;9259;48.194;16.322;2022-09-06T23:33:30;19.10;99.90
18266;DHT22;9259;48.194;16.322;2022-09-06T23:36:00;19.20;99.90
18266;DHT22;9259;48.194;16.322;2022-09-06T23:38:30;19.20;99.90
18266;DHT22;9259;48.194;16.322;2022-09-06T23:40:58;19.10;99.90
18266;DHT22;9259;48.194;16.322;2022-09-06T23:43:26;19.10;99.90
18266;DHT22;9259;48.194;16.322;2022-09-06T23:45:54;19.00;99.90
18266;DHT22;9259;48.194;16.322;2022-09-06T23:48:22;19.10;99.90
18266;DHT22;9259;48.194;16.322;2022-09-06T23:50:50;19.10;99.90
18266;DHT22;9259;48.194;16.322;2022-09-06T23:53:18;19.10;99.90
18266;DHT22;9259;48.194;16.322;2022-09-06T23:55:48;19.10;99.90
18266;DHT22;9259;48.194;16.322;2022-09-06T23:58:15;19.10;99.90
